Time;durP1;ratioP1;P1;durP2;ratioP2;P2;SDS_P1;SDS_P2;PMS_P1;PMS_P2;Temp;Humidity;BMP_temperature;BMP_pressure;BME280_temperature;BME280_humidity;BME280_pressure;Samples;Min_cycle;Max_cycle;Signal;HPM_P1;HPM_P2
2022/10/04 00:00:48;;;;;;;1.73;1.40;;;;;;;;;;4958887;28;20202;-66
2022/10/04 00:03:21;;;;;;;1.53;1.30;;;;;;;;;;4968597;28;20324;-67
2022/10/04 00:05:49;;;;;;;2.17;1.70;;;;;;;;;;4970417;28;20248;-67
2022/10/04 00:08:25;;;;;;;2.00;1.60;;;;;;;;;;4970031;28;20190;-67
2022/10/04 00:11:01;;;;;;;4.43;2.10;;;;;;;;;;4970696;28;20635;-67
2022/10/04 00:13:28;;;;;;;3.90;1.80;;;;;;;;;;4969306;28;20320;-67
2022/10/04 00:15:55;;;;;;;4.30;1.80;;;;;;;;;;4977183;28;20198;-67
2022/10/04 00:18:22;;;;;;;3.07;2.00;;;;;;;;;;4986459;28;20211;-66
2022/10/04 00:20:54;;;;;;;3.80;2.20;;;;;;;;;;4963816;28;20197;-67
2022/10/04 00:23:24;;;;;;;2.97;2.30;;;;;;;;;;4969671;28;20235;-67
2022/10/04 00:25:51;;;;;;;2.07;1.80;;;;;;;;;;4969145;28;20189;-67
2022/10/04 00:28:20;;;;;;;4.20;2.10;;;;;;;;;;4970540;28;20189;-66
2022/10/04 00:31:02;;;;;;;4.27;2.17;;;;;;;;;;4970172;28;20197;-67
2022/10/04 00:33:33;;;;;;;2.57;2.00;;;;;;;;;;4961910;28;20193;-67
2022/10/04 00:36:00;;;;;;;2.90;2.00;;;;;;;;;;4965929;28;20208;-67
2022/10/04 00:38:26;;;;;;;3.67;1.93;;;;;;;;;;4968000;28;20212;-67
2022/10/04 00:40:55;;;;;;;3.40;1.83;;;;;;;;;;4969804;28;20200;-67
2022/10/04 00:43:27;;;;;;;4.37;2.50;;;;;;;;;;4969903;28;20237;-67
2022/10/04 00:45:55;;;;;;;2.60;2.10;;;;;;;;;;4969262;28;20915;-67
2022/10/04 00:48:28;;;;;;;2.67;2.00;;;;;;;;;;4969996;28;20193;-66
2022/10/04 00:51:22;;;;;;;2.63;1.80;;;;;;;;;;4969165;28;20185;-67
2022/10/04 00:54:00;;;;;;;3.60;1.83;;;;;;;;;;4969745;28;20204;-66
2022/10/04 00:56:35;;;;;;;2.60;1.60;;;;;;;;;;4968215;28;20197;-67
2022/10/04 00:59:04;;;;;;;2.50;1.67;;;;;;;;;;4985943;28;20189;-67
2022/10/04 01:01:31;;;;;;;2.80;2.00;;;;;;;;;;4985700;28;20602;-67
2022/10/04 01:03:58;;;;;;;4.70;2.20;;;;;;;;;;4980567;28;20228;-67
2022/10/04 01:06:25;;;;;;;3.93;1.80;;;;;;;;;;4969629;28;20197;-67
2022/10/04 01:08:55;;;;;;;4.50;2.20;;;;;;;;;;4967764;28;20664;-67
2022/10/04 01:11:42;;;;;;;3.40;2.13;;;;;;;;;;4968322;28;20190;-67
2022/10/04 01:14:17;;;;;;;2.77;1.90;;;;;;;;;;4963398;28;20185;-67
2022/10/04 01:16:44;;;;;;;2.63;1.60;;;;;;;;;;4966771;28;20209;-68
2022/10/04 01:19:26;;;;;;;3.63;1.73;;;;;;;;;;4968235;28;20654;-66
2022/10/04 01:21:58;;;;;;;2.43;1.80;;;;;;;;;;4969460;28;20248;-67
2022/10/04 01:24:25;;;;;;;1.97;1.60;;;;;;;;;;4969629;28;20226;-67
2022/10/04 01:26:53;;;;;;;1.87;1.70;;;;;;;;;;4968579;28;20194;-66
2022/10/04 01:29:23;;;;;;;2.23;1.60;;;;;;;;;;4969927;28;20205;-67
2022/10/04 01:31:51;;;;;;;2.63;1.83;;;;;;;;;;4969362;28;20248;-67
2022/10/04 01:34:18;;;;;;;2.00;1.50;;;;;;;;;;4967815;28;20548;-67
2022/10/04 01:36:46;;;;;;;3.30;1.80;;;;;;;;;;4968099;28;20937;-67
2022/10/04 01:39:13;;;;;;;2.67;1.90;;;;;;;;;;4967557;28;20247;-67
2022/10/04 01:41:39;;;;;;;2.43;1.70;;;;;;;;;;4970159;28;20212;-66
2022/10/04 01:44:08;;;;;;;1.60;1.50;;;;;;;;;;4969387;28;20238;-67
2022/10/04 01:46:35;;;;;;;4.63;1.70;;;;;;;;;;4969176;28;20197;-67
2022/10/04 01:49:02;;;;;;;3.07;1.77;;;;;;;;;;4967194;28;20256;-67
2022/10/04 01:51:30;;;;;;;3.03;1.97;;;;;;;;;;4967590;28;20629;-67
2022/10/04 01:54:01;;;;;;;2.43;1.80;;;;;;;;;;4967957;28;20938;-67
2022/10/04 01:56:30;;;;;;;2.60;1.67;;;;;;;;;;4968531;28;20205;-67
2022/10/04 01:58:58;;;;;;;3.93;2.00;;;;;;;;;;4972234;28;20668;-67
2022/10/04 02:01:27;;;;;;;2.60;1.90;;;;;;;;;;4972457;28;20194;-67
2022/10/04 02:03:58;;;;;;;4.10;2.40;;;;;;;;;;4972964;28;20539;-67
2022/10/04 02:06:24;;;;;;;3.10;2.00;;;;;;;;;;4969790;28;20201;-67
2022/10/04 02:08:56;;;;;;;3.83;2.23;;;;;;;;;;4969425;28;20336;-67
2022/10/04 02:11:23;;;;;;;2.97;2.27;;;;;;;;;;4972035;28;20277;-67
2022/10/04 02:13:50;;;;;;;3.70;2.10;;;;;;;;;;4972572;28;20244;-66
2022/10/04 02:16:17;;;;;;;5.73;2.37;;;;;;;;;;4973846;28;20737;-68
2022/10/04 02:18:44;;;;;;;4.67;2.27;;;;;;;;;;4977842;28;20652;-67
2022/10/04 02:21:11;;;;;;;5.37;2.53;;;;;;;;;;4980864;28;20680;-67
2022/10/04 02:23:37;;;;;;;3.03;2.30;;;;;;;;;;4963869;28;20222;-66
2022/10/04 02:26:08;;;;;;;4.07;2.60;;;;;;;;;;4969448;28;20252;-67
2022/10/04 02:28:35;;;;;;;4.67;2.83;;;;;;;;;;4964612;28;20189;-67
2022/10/04 02:33:48;;;;;;;3.23;2.60;;;;;;;;;;4971725;28;20220;-67
2022/10/04 02:36:15;;;;;;;2.93;2.30;;;;;;;;;;4971092;28;20189;-67
2022/10/04 02:38:43;;;;;;;7.70;2.73;;;;;;;;;;4970398;28;20596;-68
2022/10/04 02:41:21;;;;;;;3.77;2.67;;;;;;;;;;4972504;28;20198;-67
2022/10/04 02:44:08;;;;;;;5.87;2.80;;;;;;;;;;4970303;28;20771;-67
2022/10/04 02:46:39;;;;;;;3.57;3.00;;;;;;;;;;4967538;28;20209;-68
2022/10/04 02:49:09;;;;;;;4.07;3.00;;;;;;;;;;4959459;28;20197;-67
2022/10/04 02:51:36;;;;;;;3.63;2.97;;;;;;;;;;4971757;28;20224;-66
2022/10/04 02:54:04;;;;;;;3.77;2.60;;;;;;;;;;4969637;28;20193;-65
2022/10/04 02:56:31;;;;;;;4.20;2.93;;;;;;;;;;4971262;28;20228;-65
2022/10/04 02:59:05;;;;;;;4.10;2.63;;;;;;;;;;4960826;28;20197;-67
2022/10/04 03:01:51;;;;;;;4.93;3.00;;;;;;;;;;4959255;28;20201;-68
2022/10/04 03:04:19;;;;;;;5.83;2.60;;;;;;;;;;4962742;28;20226;-66
2022/10/04 03:06:46;;;;;;;4.53;2.57;;;;;;;;;;4965067;28;20193;-66
2022/10/04 03:09:13;;;;;;;4.90;2.60;;;;;;;;;;4962749;28;20204;-68
2022/10/04 03:11:40;;;;;;;7.33;2.67;;;;;;;;;;4963724;28;20566;-67
2022/10/04 03:14:23;;;;;;;4.77;2.40;;;;;;;;;;4965197;28;20272;-66
2022/10/04 03:16:52;;;;;;;3.43;3.10;;;;;;;;;;4962641;28;20589;-66
2022/10/04 03:19:20;;;;;;;8.47;2.80;;;;;;;;;;4961935;28;20209;-65
2022/10/04 03:21:48;;;;;;;3.27;2.53;;;;;;;;;;4965688;28;20208;-67
2022/10/04 03:24:19;;;;;;;5.37;2.77;;;;;;;;;;4963811;28;20198;-67
2022/10/04 03:26:46;;;;;;;5.33;2.80;;;;;;;;;;4962939;28;20216;-66
2022/10/04 03:29:13;;;;;;;5.40;2.60;;;;;;;;;;4963802;28;20190;-65
2022/10/04 03:31:41;;;;;;;3.37;2.20;;;;;;;;;;4963792;28;20205;-66
2022/10/04 03:34:15;;;;;;;3.73;2.37;;;;;;;;;;4961822;28;20313;-66
2022/10/04 03:36:42;;;;;;;4.30;2.90;;;;;;;;;;4963626;28;20733;-66
2022/10/04 03:39:09;;;;;;;3.30;2.40;;;;;;;;;;4961910;28;20661;-67
2022/10/04 03:41:39;;;;;;;4.37;2.43;;;;;;;;;;4961489;28;20220;-68
2022/10/04 03:44:11;;;;;;;5.70;2.60;;;;;;;;;;4958120;28;20228;-67
2022/10/04 03:46:37;;;;;;;5.87;2.70;;;;;;;;;;4961136;28;20205;-67
2022/10/04 03:49:04;;;;;;;4.57;2.67;;;;;;;;;;4962015;28;20689;-68
2022/10/04 03:51:31;;;;;;;4.63;2.47;;;;;;;;;;4963520;28;20205;-67
2022/10/04 03:53:58;;;;;;;4.10;2.80;;;;;;;;;;4962934;28;20208;-66
2022/10/04 03:56:28;;;;;;;5.73;3.07;;;;;;;;;;4964274;28;20197;-67
2022/10/04 03:58:55;;;;;;;4.27;2.90;;;;;;;;;;4963581;28;20534;-67
2022/10/04 04:01:24;;;;;;;3.23;2.50;;;;;;;;;;4963780;28;20531;-66
2022/10/04 04:04:10;;;;;;;5.50;3.00;;;;;;;;;;4964322;28;20555;-66
2022/10/04 04:07:15;;;;;;;4.03;2.57;;;;;;;;;;4963516;28;20193;-65
2022/10/04 04:09:50;;;;;;;5.67;3.30;;;;;;;;;;4961647;28;20224;-67
2022/10/04 04:12:19;;;;;;;3.83;2.90;;;;;;;;;;4961866;28;20193;-68
2022/10/04 04:14:47;;;;;;;4.77;2.83;;;;;;;;;;4962307;28;20694;-69
2022/10/04 04:17:27;;;;;;;4.97;3.00;;;;;;;;;;4960793;28;20231;-69
2022/10/04 04:19:58;;;;;;;5.00;3.10;;;;;;;;;;4939023;28;20217;-66
2022/10/04 04:22:30;;;;;;;4.80;3.00;;;;;;;;;;4963685;28;20221;-68
2022/10/04 04:25:14;;;;;;;3.87;2.60;;;;;;;;;;4960601;28;20276;-66
2022/10/04 04:27:41;;;;;;;7.17;3.00;;;;;;;;;;4963769;28;20182;-68
2022/10/04 04:30:11;;;;;;;3.67;2.70;;;;;;;;;;4961434;28;20193;-67
2022/10/04 04:32:42;;;;;;;4.23;2.80;;;;;;;;;;4963816;28;20263;-67
2022/10/04 04:35:22;;;;;;;5.73;2.47;;;;;;;;;;4959831;28;20549;-69
2022/10/04 04:38:06;;;;;;;4.77;2.80;;;;;;;;;;4962844;28;20198;-69
2022/10/04 04:40:33;;;;;;;4.90;2.40;;;;;;;;;;4962912;28;20264;-68
2022/10/04 04:43:00;;;;;;;5.13;2.80;;;;;;;;;;4965898;28;20237;-68
2022/10/04 04:45:28;;;;;;;6.97;2.70;;;;;;;;;;4966168;28;20200;-69
2022/10/04 04:47:58;;;;;;;4.63;2.70;;;;;;;;;;4966373;28;20276;-68
2022/10/04 04:50:32;;;;;;;3.17;2.30;;;;;;;;;;4963536;28;20216;-67
2022/10/04 04:53:05;;;;;;;4.77;2.73;;;;;;;;;;4961721;28;20315;-68
2022/10/04 04:55:37;;;;;;;4.20;2.60;;;;;;;;;;4965690;28;20198;-68
2022/10/04 04:58:25;;;;;;;4.70;3.10;;;;;;;;;;4977254;28;20225;-67
2022/10/04 05:00:58;;;;;;;4.00;2.77;;;;;;;;;;4961961;28;20194;-70
2022/10/04 05:03:25;;;;;;;4.43;2.87;;;;;;;;;;4962461;28;20233;-69
2022/10/04 05:05:53;;;;;;;5.07;2.70;;;;;;;;;;4964381;28;20193;-70
2022/10/04 05:08:21;;;;;;;2.97;2.33;;;;;;;;;;4960211;28;20205;-69
2022/10/04 05:10:57;;;;;;;4.00;2.50;;;;;;;;;;4960129;28;20218;-69
2022/10/04 05:13:25;;;;;;;4.10;2.77;;;;;;;;;;4961665;28;20291;-69
2022/10/04 05:15:52;;;;;;;5.10;2.60;;;;;;;;;;4961942;28;20193;-68
2022/10/04 05:18:28;;;;;;;4.07;2.27;;;;;;;;;;4961772;28;20280;-67
2022/10/04 05:20:57;;;;;;;4.47;2.47;;;;;;;;;;4962420;28;20197;-67
2022/10/04 05:23:24;;;;;;;5.37;2.57;;;;;;;;;;4962454;28;20248;-68
2022/10/04 05:25:52;;;;;;;3.83;2.53;;;;;;;;;;4962923;28;20190;-68
2022/10/04 05:28:18;;;;;;;6.03;2.67;;;;;;;;;;4961897;28;20320;-68
2022/10/04 05:30:47;;;;;;;6.57;2.50;;;;;;;;;;4964402;28;20217;-69
2022/10/04 05:33:17;;;;;;;3.13;2.40;;;;;;;;;;4964273;28;20189;-67
2022/10/04 05:35:45;;;;;;;5.47;2.43;;;;;;;;;;4968255;28;20193;-66
2022/10/04 05:38:26;;;;;;;5.23;3.00;;;;;;;;;;4970518;28;20193;-68
2022/10/04 05:40:57;;;;;;;5.00;2.70;;;;;;;;;;4970876;28;20197;-67
2022/10/04 05:43:33;;;;;;;5.07;3.37;;;;;;;;;;4969296;28;20256;-67
2022/10/04 05:46:09;;;;;;;9.30;3.10;;;;;;;;;;4970651;28;20185;-68
2022/10/04 05:48:36;;;;;;;4.90;2.60;;;;;;;;;;4970494;28;20677;-68
2022/10/04 05:51:11;;;;;;;3.67;2.60;;;;;;;;;;4969090;28;20223;-67
2022/10/04 05:53:39;;;;;;;3.70;2.53;;;;;;;;;;4970822;28;20221;-67
2022/10/04 05:56:10;;;;;;;5.33;2.77;;;;;;;;;;4959010;28;20908;-67
2022/10/04 05:58:40;;;;;;;4.27;2.40;;;;;;;;;;4957937;28;20416;-68
2022/10/04 06:01:23;;;;;;;3.20;2.33;;;;;;;;;;4958130;28;20221;-68
2022/10/04 06:04:02;;;;;;;3.83;2.27;;;;;;;;;;4956404;28;20222;-68
2022/10/04 06:06:32;;;;;;;5.43;2.53;;;;;;;;;;4959490;28;20654;-70
2022/10/04 06:09:11;;;;;;;4.83;2.30;;;;;;;;;;4958668;28;20194;-68
2022/10/04 06:11:39;;;;;;;4.03;2.27;;;;;;;;;;4958395;28;20327;-67
2022/10/04 06:14:22;;;;;;;2.40;2.10;;;;;;;;;;4959298;28;20321;-70
2022/10/04 06:16:55;;;;;;;3.73;2.30;;;;;;;;;;4970576;28;20189;-67
2022/10/04 06:19:25;;;;;;;3.20;2.03;;;;;;;;;;4968939;28;20221;-67
2022/10/04 06:22:05;;;;;;;4.13;2.27;;;;;;;;;;4970376;28;20229;-68
2022/10/04 06:24:33;;;;;;;3.50;2.20;;;;;;;;;;4968993;28;20223;-66
2022/10/04 06:27:19;;;;;;;5.03;2.43;;;;;;;;;;4969104;28;20189;-68
2022/10/04 06:29:49;;;;;;;2.53;1.90;;;;;;;;;;4969068;28;20609;-66
2022/10/04 06:32:34;;;;;;;4.10;2.10;;;;;;;;;;4968920;28;20204;-67
2022/10/04 06:35:01;;;;;;;3.57;2.20;;;;;;;;;;4969953;28;20562;-67
2022/10/04 06:37:46;;;;;;;4.00;2.10;;;;;;;;;;4958276;28;20201;-67
2022/10/04 06:40:19;;;;;;;4.00;2.20;;;;;;;;;;4944652;28;20261;-68
2022/10/04 06:43:08;;;;;;;3.67;2.23;;;;;;;;;;4962678;28;20186;-70
2022/10/04 06:45:54;;;;;;;3.33;2.33;;;;;;;;;;4963554;28;20306;-68
2022/10/04 06:48:36;;;;;;;3.87;2.40;;;;;;;;;;4966044;28;20267;-68
2022/10/04 06:51:12;;;;;;;3.80;2.57;;;;;;;;;;4960640;28;20284;-69
2022/10/04 06:53:42;;;;;;;4.63;2.27;;;;;;;;;;4963033;28;20204;-69
2022/10/04 06:56:08;;;;;;;2.20;2.00;;;;;;;;;;4966508;28;20212;-69
2022/10/04 06:58:35;;;;;;;4.70;1.80;;;;;;;;;;4962640;28;20311;-68
2022/10/04 07:01:03;;;;;;;2.90;1.90;;;;;;;;;;4965783;28;20738;-67
2022/10/04 07:03:33;;;;;;;2.20;1.70;;;;;;;;;;4962101;28;20221;-68
2022/10/04 07:06:05;;;;;;;2.60;1.60;;;;;;;;;;4965129;28;20190;-68
2022/10/04 07:08:46;;;;;;;2.47;1.67;;;;;;;;;;4964910;28;20209;-68
2022/10/04 07:11:24;;;;;;;2.73;1.40;;;;;;;;;;4962898;28;20208;-69
2022/10/04 07:14:12;;;;;;;2.90;1.13;;;;;;;;;;4962965;28;20716;-66
2022/10/04 07:16:45;;;;;;;2.67;1.40;;;;;;;;;;4964244;28;20214;-65
2022/10/04 07:19:18;;;;;;;3.63;1.30;;;;;;;;;;4963296;28;20192;-66
2022/10/04 07:21:51;;;;;;;3.80;1.47;;;;;;;;;;4965217;28;20280;-66
2022/10/04 07:24:42;;;;;;;3.10;2.10;;;;;;;;;;4962642;28;20747;-66
2022/10/04 07:27:09;;;;;;;3.53;1.63;;;;;;;;;;4963834;28;20210;-66
2022/10/04 07:29:37;;;;;;;3.87;1.50;;;;;;;;;;4963159;28;20227;-67
2022/10/04 07:32:20;;;;;;;1.70;1.30;;;;;;;;;;4958211;28;20646;-67
2022/10/04 07:34:56;;;;;;;2.43;1.40;;;;;;;;;;4960808;28;20208;-70
2022/10/04 07:37:24;;;;;;;2.30;1.80;;;;;;;;;;4961438;28;20197;-66
2022/10/04 07:39:51;;;;;;;2.53;1.10;;;;;;;;;;4964109;28;20209;-66
2022/10/04 07:42:19;;;;;;;2.00;1.30;;;;;;;;;;4964003;28;20224;-68
2022/10/04 07:45:06;;;;;;;3.67;1.10;;;;;;;;;;4962418;28;20229;-68
2022/10/04 07:47:33;;;;;;;3.13;1.53;;;;;;;;;;4956053;28;20619;-67
2022/10/04 07:50:00;;;;;;;3.77;1.60;;;;;;;;;;4964232;28;20189;-68
2022/10/04 07:52:47;;;;;;;3.17;1.30;;;;;;;;;;4962626;28;20561;-67
2022/10/04 07:55:27;;;;;;;2.93;1.57;;;;;;;;;;4963179;28;20220;-70
2022/10/04 07:58:30;;;;;;;4.60;1.67;;;;;;;;;;4963194;28;20203;-71
2022/10/04 08:01:00;;;;;;;3.07;1.50;;;;;;;;;;4923388;29;20352;-69
2022/10/04 08:03:35;;;;;;;2.03;1.30;;;;;;;;;;4950500;28;20226;-68
2022/10/04 08:06:04;;;;;;;2.83;1.60;;;;;;;;;;4965071;28;20189;-69
2022/10/04 08:08:31;;;;;;;2.27;1.50;;;;;;;;;;4964162;28;20193;-71
2022/10/04 08:11:17;;;;;;;2.43;1.30;;;;;;;;;;4964336;28;20660;-68
2022/10/04 08:14:04;;;;;;;2.00;1.27;;;;;;;;;;4963044;28;20177;-69
2022/10/04 08:16:51;;;;;;;2.50;1.40;;;;;;;;;;4936952;28;20317;-68
2022/10/04 08:19:38;;;;;;;3.27;1.27;;;;;;;;;;4962724;28;20197;-76
2022/10/04 08:22:12;;;;;;;2.80;1.50;;;;;;;;;;4964647;28;20601;-74
2022/10/04 08:24:48;;;;;;;1.97;1.10;;;;;;;;;;4962696;28;20220;-84
2022/10/04 08:27:38;;;;;;;1.67;1.10;;;;;;;;;;4950668;28;20790;-83
2022/10/04 08:30:12;;;;;;;2.10;1.13;;;;;;;;;;4962526;28;20277;-74
2022/10/04 08:33:00;;;;;;;3.17;1.40;;;;;;;;;;4962643;28;20193;-74
2022/10/04 08:35:38;;;;;;;1.50;1.03;;;;;;;;;;4963132;28;20208;-75
2022/10/04 08:38:23;;;;;;;1.30;0.90;;;;;;;;;;4963555;28;20208;-74
2022/10/04 08:41:30;;;;;;;3.27;1.17;;;;;;;;;;4964629;28;20189;-73
2022/10/04 08:44:04;;;;;;;4.23;1.20;;;;;;;;;;4960526;28;20232;-78
2022/10/04 08:46:39;;;;;;;2.00;1.03;;;;;;;;;;4961279;28;20211;-88
2022/10/04 08:49:18;;;;;;;1.10;1.00;;;;;;;;;;4961118;28;20267;-77
2022/10/04 08:52:05;;;;;;;1.23;0.90;;;;;;;;;;4963892;28;20169;-77
2022/10/04 08:54:54;;;;;;;1.63;1.13;;;;;;;;;;4961223;28;20565;-74
2022/10/04 08:57:31;;;;;;;1.13;0.90;;;;;;;;;;4963076;28;20221;-76
2022/10/04 09:00:03;;;;;;;1.50;0.70;;;;;;;;;;4964562;28;20212;-80
2022/10/04 09:02:38;;;;;;;1.30;0.73;;;;;;;;;;4962984;28;20205;-77
2022/10/04 09:05:08;;;;;;;1.47;0.90;;;;;;;;;;4946091;28;20716;-78
2022/10/04 09:07:40;;;;;;;1.47;0.70;;;;;;;;;;4963888;28;20189;-78
2022/10/04 09:10:26;;;;;;;1.10;0.60;;;;;;;;;;4962617;28;20220;-74
2022/10/04 09:13:21;;;;;;;2.00;0.70;;;;;;;;;;4953495;28;20325;-77
2022/10/04 09:15:50;;;;;;;1.70;0.70;;;;;;;;;;4960430;28;20201;-74
2022/10/04 09:18:18;;;;;;;0.90;0.70;;;;;;;;;;4961082;28;20340;-72
2022/10/04 09:21:07;;;;;;;2.50;0.80;;;;;;;;;;4962245;28;20549;-76
2022/10/04 09:23:54;;;;;;;1.10;0.60;;;;;;;;;;4956700;28;20205;-73
2022/10/04 09:26:21;;;;;;;1.80;0.70;;;;;;;;;;4949787;28;20194;-75
2022/10/04 09:28:51;;;;;;;1.40;0.70;;;;;;;;;;4957760;28;20196;-71
2022/10/04 09:31:24;;;;;;;0.73;0.47;;;;;;;;;;4958953;28;20225;-75
2022/10/04 09:34:08;;;;;;;0.60;0.50;;;;;;;;;;4959328;28;20184;-78
2022/10/04 09:36:40;;;;;;;2.37;0.60;;;;;;;;;;4963734;28;20201;-80
2022/10/04 09:39:35;;;;;;;2.43;0.43;;;;;;;;;;4957333;28;20217;-75
2022/10/04 09:42:21;;;;;;;2.03;0.40;;;;;;;;;;4951756;28;20229;-80
2022/10/04 09:45:07;;;;;;;2.33;0.60;;;;;;;;;;4961600;28;20739;-71
2022/10/04 09:47:37;;;;;;;2.10;0.63;;;;;;;;;;4961389;28;20708;-74
2022/10/04 09:50:24;;;;;;;1.23;0.73;;;;;;;;;;4959948;28;20221;-76
2022/10/04 09:53:09;;;;;;;1.03;0.50;;;;;;;;;;4967753;28;20236;-86
2022/10/04 09:55:57;;;;;;;1.67;0.60;;;;;;;;;;4961997;28;20209;-79
2022/10/04 09:58:28;;;;;;;3.23;0.60;;;;;;;;;;4960853;28;20276;-79
2022/10/04 10:01:32;;;;;;;1.17;0.50;;;;;;;;;;4963113;28;20182;-79
2022/10/04 10:04:01;;;;;;;1.60;0.50;;;;;;;;;;4962397;28;20221;-76
2022/10/04 10:06:30;;;;;;;2.90;0.60;;;;;;;;;;4958642;28;20699;-76
2022/10/04 10:09:12;;;;;;;1.03;0.50;;;;;;;;;;4960098;28;20997;-72
2022/10/04 10:15:02;;;;;;;1.63;0.57;;;;;;;;;;4933857;28;20308;-70
2022/10/04 10:17:36;;;;;;;1.63;0.70;;;;;;;;;;4957074;28;20193;-72
2022/10/04 10:20:07;;;;;;;2.43;0.50;;;;;;;;;;4961870;28;20912;-72
2022/10/04 10:22:51;;;;;;;2.17;0.60;;;;;;;;;;4963200;28;20225;-73
2022/10/04 10:25:37;;;;;;;1.27;0.40;;;;;;;;;;4963025;28;20257;-79
2022/10/04 10:28:17;;;;;;;1.33;0.50;;;;;;;;;;4966655;28;20299;-73
2022/10/04 10:31:07;;;;;;;2.43;0.83;;;;;;;;;;4961877;28;20775;-76
2022/10/04 10:33:41;;;;;;;2.50;0.60;;;;;;;;;;4964150;28;20209;-74
2022/10/04 10:36:22;;;;;;;1.87;0.70;;;;;;;;;;4963106;28;20185;-75
2022/10/04 10:38:56;;;;;;;1.67;0.40;;;;;;;;;;4966345;28;20196;-77
2022/10/04 10:41:38;;;;;;;1.37;0.60;;;;;;;;;;4963658;28;20304;-74
2022/10/04 10:44:29;;;;;;;1.70;0.53;;;;;;;;;;4961886;28;20252;-76
2022/10/04 10:46:57;;;;;;;1.07;0.50;;;;;;;;;;4946056;28;20873;-79
2022/10/04 10:49:45;;;;;;;1.83;0.87;;;;;;;;;;4956234;28;20197;-71
2022/10/04 10:52:12;;;;;;;0.93;0.60;;;;;;;;;;4961873;28;20200;-72
2022/10/04 10:54:55;;;;;;;1.43;0.60;;;;;;;;;;4963031;28;20193;-72
2022/10/04 10:57:35;;;;;;;1.43;0.50;;;;;;;;;;4961099;28;20201;-71
2022/10/04 11:00:10;;;;;;;2.83;0.60;;;;;;;;;;4961535;28;20312;-72
2022/10/04 11:02:56;;;;;;;3.17;0.43;;;;;;;;;;4961899;28;20207;-72
2022/10/04 11:05:57;;;;;;;1.57;0.50;;;;;;;;;;4962742;28;20229;-73
2022/10/04 11:08:26;;;;;;;1.17;0.43;;;;;;;;;;4961117;28;20212;-72
2022/10/04 11:11:07;;;;;;;2.87;0.87;;;;;;;;;;4962607;28;20197;-73
2022/10/04 11:13:37;;;;;;;2.03;0.50;;;;;;;;;;4961106;28;20580;-71
2022/10/04 11:16:22;;;;;;;0.80;0.47;;;;;;;;;;4962853;28;20233;-75
2022/10/04 11:18:57;;;;;;;1.37;0.50;;;;;;;;;;4963206;28;20205;-73
2022/10/04 11:21:39;;;;;;;2.10;0.60;;;;;;;;;;4949766;28;20240;-72
2022/10/04 11:24:13;;;;;;;4.00;0.60;;;;;;;;;;4962389;28;20209;-69
2022/10/04 11:26:46;;;;;;;3.27;0.57;;;;;;;;;;4960014;28;20197;-72
2022/10/04 11:29:32;;;;;;;2.20;0.90;;;;;;;;;;4961962;28;20194;-69
2022/10/04 11:31:59;;;;;;;1.47;0.50;;;;;;;;;;4960805;28;20596;-69
2022/10/04 11:34:36;;;;;;;1.50;0.40;;;;;;;;;;4957746;28;20182;-70
2022/10/04 11:37:26;;;;;;;33.37;17.03;;;;;;;;;;4957486;28;20260;-73
2022/10/04 11:39:53;;;;;;;3.03;0.57;;;;;;;;;;4957378;28;20220;-73
2022/10/04 11:42:27;;;;;;;7.63;3.23;;;;;;;;;;4962537;28;20565;-72
2022/10/04 11:44:58;;;;;;;1.93;0.73;;;;;;;;;;4963145;28;20612;-72
2022/10/04 11:47:31;;;;;;;1.50;0.50;;;;;;;;;;4959680;28;20304;-71
2022/10/04 11:49:58;;;;;;;2.30;0.70;;;;;;;;;;4962855;28;20303;-69
2022/10/04 11:52:38;;;;;;;1.97;0.70;;;;;;;;;;4962042;28;20201;-71
2022/10/04 11:55:07;;;;;;;0.97;0.60;;;;;;;;;;4962065;28;21239;-75
2022/10/04 11:57:43;;;;;;;0.90;0.40;;;;;;;;;;4960035;28;20740;-73
2022/10/04 12:00:15;;;;;;;3.67;0.77;;;;;;;;;;4945003;28;20202;-72
2022/10/04 12:03:04;;;;;;;2.50;0.40;;;;;;;;;;4961234;28;20209;-74
2022/10/04 12:05:50;;;;;;;2.73;0.50;;;;;;;;;;4961514;28;20707;-72
2022/10/04 12:08:19;;;;;;;1.57;0.63;;;;;;;;;;4962264;28;20234;-74
2022/10/04 12:11:06;;;;;;;0.83;0.30;;;;;;;;;;4959895;28;20197;-73
2022/10/04 12:14:04;;;;;;;1.83;1.17;;;;;;;;;;4963241;28;20220;-72
2022/10/04 12:16:37;;;;;;;1.43;0.40;;;;;;;;;;4910012;28;20250;-71
2022/10/04 12:19:11;;;;;;;1.57;0.50;;;;;;;;;;4952805;28;20197;-74
2022/10/04 12:21:46;;;;;;;0.70;0.70;;;;;;;;;;4981302;28;20290;-72
2022/10/04 12:24:22;;;;;;;1.57;0.50;;;;;;;;;;4945235;28;21071;-70
2022/10/04 12:27:07;;;;;;;2.07;0.50;;;;;;;;;;4983544;28;20698;-73
2022/10/04 12:29:53;;;;;;;1.43;0.50;;;;;;;;;;4981715;28;20193;-72
2022/10/04 12:32:23;;;;;;;2.83;0.40;;;;;;;;;;4969635;28;20266;-69
2022/10/04 12:34:56;;;;;;;2.17;0.40;;;;;;;;;;4999829;28;20192;-72
2022/10/04 12:37:26;;;;;;;1.50;0.50;;;;;;;;;;4980234;28;20284;-72
2022/10/04 12:40:08;;;;;;;0.87;0.40;;;;;;;;;;4962898;28;20296;-72
2022/10/04 12:42:41;;;;;;;2.03;0.53;;;;;;;;;;4962787;28;20258;-72
2022/10/04 12:45:23;;;;;;;2.37;0.70;;;;;;;;;;4979126;28;20208;-72
2022/10/04 12:48:09;;;;;;;1.00;0.50;;;;;;;;;;4993204;28;20199;-71
2022/10/04 12:50:47;;;;;;;1.03;0.50;;;;;;;;;;4980458;28;20204;-73
2022/10/04 12:53:40;;;;;;;2.27;0.90;;;;;;;;;;4964228;28;20529;-72
2022/10/04 12:56:27;;;;;;;0.33;0.33;;;;;;;;;;4963048;28;20657;-74
2022/10/04 12:58:59;;;;;;;1.17;0.60;;;;;;;;;;4986669;28;20267;-73
2022/10/04 13:01:46;;;;;;;2.97;0.50;;;;;;;;;;4964994;28;20359;-75
2022/10/04 13:04:25;;;;;;;4.40;0.70;;;;;;;;;;4932609;28;20220;-73
2022/10/04 13:07:18;;;;;;;1.13;0.40;;;;;;;;;;4986303;28;20204;-73
2022/10/04 13:09:50;;;;;;;1.93;0.60;;;;;;;;;;4970668;28;20276;-72
2022/10/04 13:12:40;;;;;;;3.53;0.80;;;;;;;;;;4965449;28;21354;-71
2022/10/04 13:15:30;;;;;;;4.90;2.53;;;;;;;;;;4983607;28;20189;-72
2022/10/04 13:18:36;;;;;;;0.90;0.50;;;;;;;;;;4966657;28;20199;-71
2022/10/04 13:21:04;;;;;;;1.70;0.90;;;;;;;;;;4985378;28;20193;-74
2022/10/04 13:23:40;;;;;;;2.67;1.50;;;;;;;;;;4967090;28;20220;-75
2022/10/04 13:26:22;;;;;;;3.03;0.90;;;;;;;;;;4991490;28;20628;-74
2022/10/04 13:29:03;;;;;;;1.60;0.50;;;;;;;;;;4983525;28;20300;-71
2022/10/04 13:31:37;;;;;;;1.63;0.80;;;;;;;;;;4988054;28;20282;-72
2022/10/04 13:34:08;;;;;;;1.63;0.70;;;;;;;;;;4985684;28;20809;-72
2022/10/04 13:36:43;;;;;;;2.13;0.50;;;;;;;;;;4986137;28;20196;-73
2022/10/04 13:39:26;;;;;;;2.73;1.60;;;;;;;;;;4966516;28;20208;-73
2022/10/04 13:42:11;;;;;;;3.40;1.43;;;;;;;;;;4988116;28;20280;-73
2022/10/04 13:44:43;;;;;;;1.33;0.80;;;;;;;;;;4962063;28;20323;-75
2022/10/04 13:47:26;;;;;;;1.60;1.00;;;;;;;;;;4965372;28;20184;-72
2022/10/04 13:49:59;;;;;;;1.83;0.50;;;;;;;;;;4985267;28;20212;-72
2022/10/04 13:58:35;;;;;;;1.93;0.70;;;;;;;;;;4985824;28;20204;-70
2022/10/04 14:01:08;;;;;;;0.50;0.40;;;;;;;;;;4989585;28;20664;-77
2022/10/04 14:04:02;;;;;;;1.37;0.50;;;;;;;;;;4970795;28;20668;-76
2022/10/04 14:06:49;;;;;;;1.67;0.60;;;;;;;;;;4937713;28;20300;-74
2022/10/04 14:09:35;;;;;;;0.60;0.40;;;;;;;;;;4936267;28;20856;-72
2022/10/04 14:12:06;;;;;;;1.20;0.63;;;;;;;;;;4992869;28;20192;-72
2022/10/04 14:14:46;;;;;;;2.10;0.70;;;;;;;;;;4968214;28;20914;-72
2022/10/04 14:17:27;;;;;;;2.03;0.90;;;;;;;;;;4965868;28;20187;-71
2022/10/04 14:19:57;;;;;;;2.00;0.90;;;;;;;;;;4971053;28;20607;-71
2022/10/04 14:22:23;;;;;;;1.93;1.17;;;;;;;;;;4995354;28;20288;-71
2022/10/04 14:25:10;;;;;;;1.07;0.80;;;;;;;;;;4989277;28;20215;-70
2022/10/04 14:27:57;;;;;;;2.53;0.90;;;;;;;;;;4990480;28;20224;-68
2022/10/04 14:30:30;;;;;;;1.87;0.60;;;;;;;;;;4966278;28;20556;-66
2022/10/04 14:33:02;;;;;;;3.13;0.70;;;;;;;;;;4995025;28;20291;-67
2022/10/04 14:35:29;;;;;;;1.00;0.50;;;;;;;;;;4994682;28;20185;-67
2022/10/04 14:38:25;;;;;;;0.80;0.50;;;;;;;;;;4995781;28;20284;-69
2022/10/04 14:40:55;;;;;;;0.90;0.40;;;;;;;;;;4940138;28;20689;-68
2022/10/04 14:43:22;;;;;;;1.40;0.57;;;;;;;;;;4990990;28;20763;-67
2022/10/04 14:46:01;;;;;;;3.53;0.93;;;;;;;;;;4985708;28;20252;-57
2022/10/04 14:48:48;;;;;;;2.73;1.40;;;;;;;;;;4986492;28;20184;-56
2022/10/04 14:51:18;;;;;;;1.80;0.70;;;;;;;;;;4982819;28;20280;-57
2022/10/04 14:54:00;;;;;;;2.17;1.57;;;;;;;;;;4991807;28;20260;-56
2022/10/04 14:56:31;;;;;;;29.40;12.97;;;;;;;;;;4980796;28;20201;-57
2022/10/04 14:59:15;;;;;;;22.53;8.40;;;;;;;;;;4985961;28;20300;-57
2022/10/04 15:01:44;;;;;;;6.27;2.60;;;;;;;;;;4973416;28;20220;-57
2022/10/04 15:04:20;;;;;;;2.17;1.20;;;;;;;;;;4963644;28;20204;-57
2022/10/04 15:06:56;;;;;;;9.37;4.33;;;;;;;;;;4990937;28;20659;-57
2022/10/04 15:09:23;;;;;;;5.73;2.53;;;;;;;;;;4993647;28;20209;-56
2022/10/04 15:11:55;;;;;;;2.23;1.47;;;;;;;;;;4993511;28;20193;-58
2022/10/04 15:14:44;;;;;;;1.60;0.90;;;;;;;;;;4979903;28;20204;-58
2022/10/04 15:17:36;;;;;;;3.30;1.23;;;;;;;;;;4994099;28;20197;-58
2022/10/04 15:20:15;;;;;;;3.70;0.90;;;;;;;;;;4983283;28;20201;-56
2022/10/04 15:22:48;;;;;;;1.63;0.80;;;;;;;;;;4976482;28;20203;-70
2022/10/04 15:25:34;;;;;;;1.77;0.73;;;;;;;;;;4976468;28;20243;-68
2022/10/04 15:28:01;;;;;;;1.83;0.80;;;;;;;;;;4994168;28;20628;-68
2022/10/04 15:30:44;;;;;;;1.50;0.90;;;;;;;;;;4977389;28;20201;-68
2022/10/04 15:33:14;;;;;;;1.80;0.90;;;;;;;;;;4965790;28;20236;-69
2022/10/04 15:36:08;;;;;;;1.20;0.83;;;;;;;;;;4990435;28;20233;-69
2022/10/04 15:38:52;;;;;;;1.83;1.00;;;;;;;;;;4966841;28;20228;-68
2022/10/04 15:41:27;;;;;;;1.50;1.10;;;;;;;;;;4972562;28;20603;-68
2022/10/04 15:43:54;;;;;;;3.13;1.00;;;;;;;;;;4985599;28;20244;-67